Time,TemperatureF,DewpointF,PressureIn,WindDirection,WindDirectionDegrees,WindSpeedMPH,WindSpeedGustMPH,Humidity,HourlyPrecipIn,Conditions,Clouds,dailyrainin,SoftwareType,DateUTC
2013-07-31 00:03:00,89.5,55.7,29.88,South,178,0.0,0.0,32,0.00,,,0.00,Wunderground v.1.15,2013-07-31 07:03:00,
2013-07-31 00:08:00,89.3,56.4,29.88,SW,229,0.0,0.0,33,0.00,,,0.00,Wunderground v.1.15,2013-07-31 07:08:00,
2013-07-31 00:13:00,89.2,56.3,29.88,WSW,239,0.0,0.0,33,0.00,,,0.00,Wunderground v.1.15,2013-07-31 07:13:00,
2013-07-31 00:18:00,89.3,56.4,29.88,SW,226,0.0,0.0,33,0.00,,,0.00,Wunderground v.1.15,2013-07-31 07:18:00,
2013-07-31 00:23:00,89.5,56.6,29.88,SSE,166,1.0,1.0,33,0.00,,,0.00,Wunderground v.1.15,2013-07-31 07:23:00,
2013-07-31 00:28:00,89.5,56.6,29.88,SSW,201,0.0,1.0,33,0.00,,,0.00,Wunderground v.1.15,2013-07-31 07:28:00,
2013-07-31 00:34:00,89.3,56.4,29.88,South,188,0.0,0.0,33,0.00,,,0.00,Wunderground v.1.15,2013-07-31 07:34:00,
2013-07-31 00:39:00,89.1,57.1,29.88,West,263,1.0,1.0,34,0.00,,,0.00,Wunderground v.1.15,2013-07-31 07:39:00,
2013-07-31 00:45:00,89.0,57.0,29.88,WSW,239,3.0,4.0,34,0.00,,,0.00,Wunderground v.1.15,2013-07-31 07:45:00,
2013-07-31 00:50:00,88.5,57.4,29.88,WSW,245,1.0,3.0,35,0.00,,,0.00,Wunderground v.1.15,2013-07-31 07:50:00,
2013-07-31 00:56:00,88.2,57.9,29.87,WSW,242,2.0,3.0,36,0.00,,,0.00,Wunderground v.1.15,2013-07-31 07:56:00,
2013-07-31 01:01:00,87.7,58.2,29.88,SW,226,0.0,2.0,37,0.00,,,0.00,Wunderground v.1.15,2013-07-31 08:01:00,
2013-07-31 01:06:00,87.2,58.5,29.88,SW,226,0.0,2.0,38,0.00,,,0.00,Wunderground v.1.15,2013-07-31 08:06:00,
2013-07-31 01:11:00,86.6,58.0,29.87,SW,226,0.0,0.0,38,0.00,,,0.00,Wunderground v.1.15,2013-07-31 08:11:00,
2013-07-31 01:16:00,86.2,58.3,29.88,SSW,207,0.0,0.0,39,0.00,,,0.00,Wunderground v.1.15,2013-07-31 08:16:00,
2013-07-31 01:21:00,86.2,58.3,29.88,WSW,243,1.0,1.0,39,0.00,,,0.00,Wunderground v.1.15,2013-07-31 08:21:00,
2013-07-31 01:27:00,86.5,58.6,29.87,South,173,0.0,2.0,39,0.00,,,0.00,Wunderground v.1.15,2013-07-31 08:27:00,
2013-07-31 01:32:00,86.3,58.4,29.87,SW,225,2.0,2.0,39,0.00,,,0.00,Wunderground v.1.15,2013-07-31 08:32:00,
2013-07-31 01:37:00,86.2,58.3,29.87,SE,137,0.0,2.0,39,0.00,,,0.00,Wunderground v.1.15,2013-07-31 08:37:00,
2013-07-31 01:42:00,86.2,59.0,29.87,SSW,197,1.0,1.0,40,0.00,,,0.00,Wunderground v.1.15,2013-07-31 08:42:00,
2013-07-31 01:48:00,86.3,58.4,29.87,SW,214,1.0,1.0,39,0.00,,,0.00,Wunderground v.1.15,2013-07-31 08:48:00,
2013-07-31 01:53:00,86.3,58.4,29.87,SW,222,0.0,3.0,39,0.00,,,0.00,Wunderground v.1.15,2013-07-31 08:53:00,
2013-07-31 01:58:00,86.2,59.0,29.87,SSW,201,0.0,3.0,40,0.00,,,0.00,Wunderground v.1.15,2013-07-31 08:58:00,
2013-07-31 02:03:00,85.9,58.8,29.86,WSW,246,0.0,2.0,40,0.00,,,0.00,Wunderground v.1.15,2013-07-31 09:03:00,
2013-07-31 02:08:00,85.6,59.2,29.86,SW,229,2.0,2.0,41,0.00,,,0.00,Wunderground v.1.15,2013-07-31 09:08:00,
2013-07-31 02:13:00,85.3,58.9,29.86,SE,141,0.0,4.0,41,0.00,,,0.00,Wunderground v.1.15,2013-07-31 09:13:00,
2013-07-31 02:18:00,84.9,58.6,29.86,SE,140,0.0,4.0,41,0.00,,,0.00,Wunderground v.1.15,2013-07-31 09:18:00,
2013-07-31 02:23:00,84.6,59.0,29.86,SE,139,0.0,1.0,42,0.00,,,0.00,Wunderground v.1.15,2013-07-31 09:23:00,
2013-07-31 02:28:00,84.1,59.2,29.86,SE,139,0.0,1.0,43,0.00,,,0.00,Wunderground v.1.15,2013-07-31 09:28:00,
2013-07-31 02:33:00,84.0,59.1,29.86,SE,140,0.0,0.0,43,0.00,,,0.00,Wunderground v.1.15,2013-07-31 09:33:00,
2013-07-31 02:38:00,83.0,61.3,29.86,West,261,1.0,4.0,48,0.00,,,0.00,Wunderground v.1.15,2013-07-31 09:38:00,
2013-07-31 02:43:00,82.1,61.0,29.86,WSW,245,0.0,1.0,49,0.00,,,0.00,Wunderground v.1.15,2013-07-31 09:43:00,
2013-07-31 02:48:00,81.8,60.2,29.86,WSW,242,0.0,1.0,48,0.00,,,0.00,Wunderground v.1.15,2013-07-31 09:48:00,
2013-07-31 02:53:00,81.6,60.6,29.86,WSW,242,0.0,0.0,49,0.00,,,0.00,Wunderground v.1.15,2013-07-31 09:53:00,
2013-07-31 02:58:00,81.3,60.9,29.86,WSW,243,0.0,1.0,50,0.00,,,0.00,Wunderground v.1.15,2013-07-31 09:58:00,
2013-07-31 03:03:00,80.9,59.9,29.86,West,259,0.0,0.0,49,0.00,,,0.00,Wunderground v.1.15,2013-07-31 10:03:00,
2013-07-31 03:08:00,80.8,59.9,29.86,WSW,250,0.0,0.0,49,0.00,,,0.00,Wunderground v.1.15,2013-07-31 10:08:00,
2013-07-31 03:13:00,81.1,60.7,29.86,ESE,105,1.0,1.0,50,0.00,,,0.00,Wunderground v.1.15,2013-07-31 10:13:00,
2013-07-31 03:18:00,81.4,60.4,29.86,ESE,108,0.0,1.0,49,0.00,,,0.00,Wunderground v.1.15,2013-07-31 10:18:00,
2013-07-31 03:23:00,81.6,59.4,29.86,ESE,110,0.0,0.0,47,0.00,,,0.00,Wunderground v.1.15,2013-07-31 10:23:00,
2013-07-31 03:28:00,81.5,61.1,29.86,ESE,110,0.0,0.0,50,0.00,,,0.00,Wunderground v.1.15,2013-07-31 10:28:00,
2013-07-31 03:33:00,80.9,61.1,29.86,ESE,110,0.0,0.0,51,0.00,,,0.00,Wunderground v.1.15,2013-07-31 10:33:00,
2013-07-31 03:38:00,81.0,60.6,29.86,East,84,0.0,1.0,50,0.00,,,0.00,Wunderground v.1.15,2013-07-31 10:38:00,
2013-07-31 03:43:00,81.3,60.3,29.86,ESE,103,0.0,0.0,49,0.00,,,0.00,Wunderground v.1.15,2013-07-31 10:43:00,
2013-07-31 03:48:00,81.3,60.9,29.86,ESE,103,0.0,0.0,50,0.00,,,0.00,Wunderground v.1.15,2013-07-31 10:48:00,
2013-07-31 03:53:00,81.4,59.8,29.86,ESE,102,0.0,0.0,48,0.00,,,0.00,Wunderground v.1.15,2013-07-31 10:53:00,
2013-07-31 03:58:00,81.9,57.2,29.86,ESE,113,0.0,1.0,43,0.00,,,0.00,Wunderground v.1.15,2013-07-31 10:58:00,
2013-07-31 04:03:00,80.7,63.0,29.86,NNE,30,0.0,3.0,55,0.00,,,0.00,Wunderground v.1.15,2013-07-31 11:03:00,
2013-07-31 04:08:00,79.3,60.1,29.86,NE,51,0.0,3.0,52,0.00,,,0.00,Wunderground v.1.15,2013-07-31 11:08:00,
2013-07-31 04:14:00,79.4,62.8,29.86,NW,310,0.0,1.0,57,0.00,,,0.00,Wunderground v.1.15,2013-07-31 11:14:00,
2013-07-31 04:19:00,78.3,60.8,29.86,WNW,300,0.0,1.0,55,0.00,,,0.00,Wunderground v.1.15,2013-07-31 11:19:00,
2013-07-31 04:24:00,77.8,59.3,29.87,NNW,337,0.0,1.0,53,0.00,,,0.00,Wunderground v.1.15,2013-07-31 11:24:00,
2013-07-31 04:29:00,77.6,60.7,29.87,NNW,348,0.0,1.0,56,0.00,,,0.00,Wunderground v.1.15,2013-07-31 11:29:00,
2013-07-31 04:34:00,77.4,60.0,29.87,NNE,19,0.0,1.0,55,0.00,,,0.00,Wunderground v.1.15,2013-07-31 11:34:00,
2013-07-31 04:39:00,77.8,59.3,29.87,NNE,19,0.0,1.0,53,0.00,,,0.00,Wunderground v.1.15,2013-07-31 11:39:00,
2013-07-31 04:44:00,78.1,61.1,29.87,WNW,302,0.0,0.0,56,0.00,,,0.00,Wunderground v.1.15,2013-07-31 11:44:00,
2013-07-31 04:49:00,77.2,59.8,29.87,WNW,302,1.0,1.0,55,0.00,,,0.00,Wunderground v.1.15,2013-07-31 11:49:00,
2013-07-31 04:54:00,76.6,59.7,29.87,NE,42,0.0,1.0,56,0.00,,,0.00,Wunderground v.1.15,2013-07-31 11:54:00,
2013-07-31 04:59:00,76.8,60.4,29.88,East,81,1.0,1.0,57,0.00,,,0.00,Wunderground v.1.15,2013-07-31 11:59:00,
2013-07-31 05:04:00,77.7,59.7,29.88,ENE,76,0.0,1.0,54,0.00,,,0.00,Wunderground v.1.15,2013-07-31 12:04:00,
2013-07-31 05:09:00,78.3,60.8,29.88,ENE,76,0.0,1.0,55,0.00,,,0.00,Wunderground v.1.15,2013-07-31 12:09:00,
2013-07-31 05:14:00,77.6,61.2,29.88,ENE,76,0.0,1.0,57,0.00,,,0.00,Wunderground v.1.15,2013-07-31 12:14:00,
2013-07-31 05:19:00,76.9,61.0,29.88,ENE,76,0.0,1.0,58,0.00,,,0.00,Wunderground v.1.15,2013-07-31 12:19:00,
2013-07-31 05:24:00,77.5,60.6,29.88,ENE,69,1.0,1.0,56,0.00,,,0.00,Wunderground v.1.15,2013-07-31 12:24:00,
2013-07-31 05:29:00,78.6,60.0,29.88,East,88,0.0,1.0,53,0.00,,,0.00,Wunderground v.1.15,2013-07-31 12:29:00,
2013-07-31 05:34:00,79.2,61.1,29.89,East,88,0.0,0.0,54,0.00,,,0.00,Wunderground v.1.15,2013-07-31 12:34:00,
2013-07-31 05:39:00,79.4,59.7,29.89,East,88,0.0,0.0,51,0.00,,,0.00,Wunderground v.1.15,2013-07-31 12:39:00,
2013-07-31 05:44:00,79.7,60.0,29.89,East,87,0.0,0.0,51,0.00,,,0.00,Wunderground v.1.15,2013-07-31 12:44:00,
2013-07-31 05:49:00,79.5,59.8,29.89,East,87,0.0,0.0,51,0.00,,,0.00,Wunderground v.1.15,2013-07-31 12:49:00,
2013-07-31 05:54:00,79.2,62.7,29.89,East,88,0.0,0.0,57,0.00,,,0.00,Wunderground v.1.15,2013-07-31 12:54:00,
2013-07-31 05:59:00,78.6,59.5,29.89,East,87,0.0,0.0,52,0.00,,,0.00,Wunderground v.1.15,2013-07-31 12:59:00,
2013-07-31 06:04:00,78.8,60.7,29.89,East,87,0.0,0.0,54,0.00,,,0.00,Wunderground v.1.15,2013-07-31 13:04:00,
2013-07-31 06:09:00,78.6,61.1,29.90,East,88,0.0,0.0,55,0.00,,,0.00,Wunderground v.1.15,2013-07-31 13:09:00,
2013-07-31 06:14:00,78.7,61.2,29.90,East,88,0.0,1.0,55,0.00,,,0.00,Wunderground v.1.15,2013-07-31 13:14:00,
2013-07-31 06:19:00,79.2,60.6,29.90,East,88,0.0,1.0,53,0.00,,,0.00,Wunderground v.1.15,2013-07-31 13:19:00,
2013-07-31 06:24:00,79.3,61.7,29.90,East,88,0.0,0.0,55,0.00,,,0.00,Wunderground v.1.15,2013-07-31 13:24:00,
2013-07-31 06:30:00,79.2,58.4,29.90,East,88,0.0,0.0,49,0.00,,,0.00,Wunderground v.1.15,2013-07-31 13:30:00,
2013-07-31 06:35:00,79.9,63.3,29.90,SE,138,0.0,1.0,57,0.00,,,0.00,Wunderground v.1.15,2013-07-31 13:35:00,
2013-07-31 06:40:00,78.9,60.8,29.91,SW,228,0.0,0.0,54,0.00,,,0.00,Wunderground v.1.15,2013-07-31 13:40:00,
2013-07-31 06:45:00,79.0,61.5,29.91,SW,228,0.0,0.0,55,0.00,,,0.00,Wunderground v.1.15,2013-07-31 13:45:00,
2013-07-31 06:50:00,79.8,62.2,29.91,SW,228,0.0,0.0,55,0.00,,,0.00,Wunderground v.1.15,2013-07-31 13:50:00,
2013-07-31 06:55:00,80.4,62.2,29.91,SW,228,0.0,0.0,54,0.00,,,0.00,Wunderground v.1.15,2013-07-31 13:55:00,
2013-07-31 07:00:00,79.7,61.1,29.91,SW,228,0.0,0.0,53,0.00,,,0.00,Wunderground v.1.15,2013-07-31 14:00:00,
2013-07-31 07:05:00,79.4,61.8,29.91,SW,231,0.0,0.0,55,0.00,,,0.00,Wunderground v.1.15,2013-07-31 14:05:00,
2013-07-31 07:10:00,79.7,58.8,29.91,SW,231,0.0,0.0,49,0.00,,,0.00,Wunderground v.1.15,2013-07-31 14:10:00,
2013-07-31 07:15:00,80.7,60.9,29.91,SW,229,0.0,0.0,51,0.00,,,0.00,Wunderground v.1.15,2013-07-31 14:15:00,
2013-07-31 07:20:00,80.8,61.5,29.91,West,275,1.0,1.0,52,0.00,,,0.00,Wunderground v.1.15,2013-07-31 14:20:00,
2013-07-31 07:25:00,80.5,61.3,29.91,West,262,0.0,1.0,52,0.00,,,0.00,Wunderground v.1.15,2013-07-31 14:25:00,
2013-07-31 07:30:00,80.9,64.2,29.91,West,261,0.0,1.0,57,0.00,,,0.00,Wunderground v.1.15,2013-07-31 14:30:00,
2013-07-31 07:35:00,81.0,65.8,29.91,West,269,1.0,1.0,60,0.00,,,0.00,Wunderground v.1.15,2013-07-31 14:35:00,
2013-07-31 07:40:00,81.0,66.3,29.91,WNW,291,0.0,0.0,61,0.00,,,0.00,Wunderground v.1.15,2013-07-31 14:40:00,
2013-07-31 07:45:00,81.8,66.1,29.92,WNW,291,0.0,0.0,59,0.00,,,0.00,Wunderground v.1.15,2013-07-31 14:45:00,
2013-07-31 07:50:00,82.6,64.3,29.92,WNW,290,0.0,1.0,54,0.00,,,0.00,Wunderground v.1.15,2013-07-31 14:50:00,
2013-07-31 07:55:00,82.9,64.5,29.92,WNW,296,0.0,1.0,54,0.00,,,0.00,Wunderground v.1.15,2013-07-31 14:55:00,
2013-07-31 08:00:00,83.3,66.0,29.92,NW,307,0.0,0.0,56,0.00,,,0.00,Wunderground v.1.15,2013-07-31 15:00:00,
2013-07-31 08:06:00,83.4,66.6,29.92,NW,307,0.0,1.0,57,0.00,,,0.00,Wunderground v.1.15,2013-07-31 15:06:00,
2013-07-31 08:10:00,83.9,66.5,29.92,NW,307,0.0,0.0,56,0.00,,,0.00,Wunderground v.1.15,2013-07-31 15:10:00,
2013-07-31 08:15:00,84.7,64.6,29.92,WNW,295,0.0,0.0,51,0.00,,,0.00,Wunderground v.1.15,2013-07-31 15:15:00,
2013-07-31 08:20:00,85.7,63.1,29.92,WNW,294,0.0,0.0,47,0.00,,,0.00,Wunderground v.1.15,2013-07-31 15:20:00,
2013-07-31 08:25:00,86.4,64.4,29.92,WNW,295,0.0,0.0,48,0.00,,,0.00,Wunderground v.1.15,2013-07-31 15:25:00,
2013-07-31 08:30:00,86.2,68.7,29.92,WNW,287,1.0,1.0,56,0.00,,,0.00,Wunderground v.1.15,2013-07-31 15:30:00,
2013-07-31 08:35:00,86.0,69.0,29.92,West,277,0.0,1.0,57,0.00,,,0.00,Wunderground v.1.15,2013-07-31 15:35:00,
2013-07-31 08:41:00,85.6,67.0,29.92,West,267,0.0,1.0,54,0.00,,,0.00,Wunderground v.1.15,2013-07-31 15:41:00,
2013-07-31 08:46:00,85.8,65.6,29.92,West,267,0.0,1.0,51,0.00,,,0.00,Wunderground v.1.15,2013-07-31 15:46:00,
2013-07-31 08:51:00,86.3,63.7,29.92,West,273,0.0,1.0,47,0.00,,,0.00,Wunderground v.1.15,2013-07-31 15:51:00,
2013-07-31 08:56:00,87.1,61.2,29.92,West,273,0.0,1.0,42,0.00,,,0.00,Wunderground v.1.15,2013-07-31 15:56:00,
2013-07-31 09:01:00,88.0,60.7,29.92,West,273,0.0,0.0,40,0.00,,,0.00,Wunderground v.1.15,2013-07-31 16:01:00,
2013-07-31 09:06:00,88.7,59.8,29.92,West,273,0.0,0.0,38,0.00,,,0.00,Wunderground v.1.15,2013-07-31 16:06:00,
2013-07-31 09:11:00,89.1,59.4,29.92,WNW,285,0.0,1.0,37,0.00,,,0.00,Wunderground v.1.15,2013-07-31 16:11:00,
2013-07-31 09:16:00,89.2,58.0,29.92,WNW,291,0.0,1.0,35,0.00,,,0.00,Wunderground v.1.15,2013-07-31 16:16:00,
2013-07-31 09:21:00,89.5,59.8,29.92,WNW,291,0.0,0.0,37,0.00,,,0.00,Wunderground v.1.15,2013-07-31 16:21:00,
2013-07-31 09:26:00,89.9,59.4,29.92,WNW,295,0.0,0.0,36,0.00,,,0.00,Wunderground v.1.15,2013-07-31 16:26:00,
2013-07-31 09:31:00,90.3,60.5,29.92,WNW,298,1.0,1.0,37,0.00,,,0.00,Wunderground v.1.15,2013-07-31 16:31:00,
2013-07-31 09:36:00,90.3,64.1,29.92,WNW,297,0.0,1.0,42,0.00,,,0.00,Wunderground v.1.15,2013-07-31 16:36:00,
2013-07-31 09:41:00,90.7,63.1,29.92,WNW,289,1.0,1.0,40,0.00,,,0.00,Wunderground v.1.15,2013-07-31 16:41:00,
2013-07-31 09:47:00,91.0,62.6,29.92,WNW,283,0.0,1.0,39,0.00,,,0.00,Wunderground v.1.15,2013-07-31 16:47:00,
2013-07-31 09:52:00,91.2,63.5,29.92,WSW,258,1.0,2.0,40,0.00,,,0.00,Wunderground v.1.15,2013-07-31 16:52:00,
2013-07-31 09:57:00,91.2,61.3,29.92,WNW,286,1.0,2.0,37,0.00,,,0.00,Wunderground v.1.15,2013-07-31 16:57:00,
2013-07-31 10:02:00,91.7,61.7,29.92,West,273,0.0,1.0,37,0.00,,,0.00,Wunderground v.1.15,2013-07-31 17:02:00,
2013-07-31 10:07:00,92.3,58.2,29.92,WNW,285,0.0,2.0,32,0.00,,,0.00,Wunderground v.1.15,2013-07-31 17:07:00,
2013-07-31 10:12:00,92.6,62.5,29.92,WNW,290,1.0,1.0,37,0.00,,,0.00,Wunderground v.1.15,2013-07-31 17:12:00,
2013-07-31 10:17:00,92.9,58.7,29.92,WNW,285,1.0,3.0,32,0.00,,,0.00,Wunderground v.1.15,2013-07-31 17:17:00,
2013-07-31 10:22:00,93.4,60.8,29.92,West,269,3.0,3.0,34,0.00,,,0.00,Wunderground v.1.15,2013-07-31 17:22:00,
2013-07-31 10:27:00,93.6,58.4,29.92,West,276,1.0,3.0,31,0.00,,,0.00,Wunderground v.1.15,2013-07-31 17:27:00,
2013-07-31 10:32:00,94.3,61.6,29.91,West,279,1.0,2.0,34,0.00,,,0.00,Wunderground v.1.15,2013-07-31 17:32:00,
2013-07-31 10:37:00,94.4,63.3,29.91,NW,319,1.0,2.0,36,0.00,,,0.00,Wunderground v.1.15,2013-07-31 17:37:00,
2013-07-31 10:42:00,94.6,61.0,29.91,WNW,295,1.0,2.0,33,0.00,,,0.00,Wunderground v.1.15,2013-07-31 17:42:00,
2013-07-31 10:47:00,95.0,63.9,29.91,NW,310,3.0,3.0,36,0.00,,,0.00,Wunderground v.1.15,2013-07-31 17:47:00,
2013-07-31 10:52:00,95.4,64.2,29.92,WNW,287,1.0,2.0,36,0.00,,,0.00,Wunderground v.1.15,2013-07-31 17:52:00,
2013-07-31 10:57:00,95.7,66.0,29.91,NW,322,3.0,3.0,38,0.00,,,0.00,Wunderground v.1.15,2013-07-31 17:57:00,
2013-07-31 11:02:00,95.3,64.9,29.91,NW,315,2.0,4.0,37,0.00,,,0.00,Wunderground v.1.15,2013-07-31 18:02:00,
2013-07-31 11:07:00,95.4,64.2,29.91,NNW,348,4.0,4.0,36,0.00,,,0.00,Wunderground v.1.15,2013-07-31 18:07:00,
2013-07-31 11:12:00,95.5,60.1,29.91,WNW,297,3.0,3.0,31,0.00,,,0.00,Wunderground v.1.15,2013-07-31 18:12:00,
2013-07-31 11:17:00,95.7,61.1,29.91,WNW,286,1.0,3.0,32,0.00,,,0.00,Wunderground v.1.15,2013-07-31 18:17:00,
2013-07-31 11:22:00,96.2,64.9,29.90,West,270,2.0,3.0,36,0.00,,,0.00,Wunderground v.1.15,2013-07-31 18:22:00,
2013-07-31 11:27:00,96.4,65.1,29.90,West,263,2.0,4.0,36,0.00,,,0.00,Wunderground v.1.15,2013-07-31 18:27:00,
2013-07-31 11:32:00,96.9,62.2,29.90,West,266,3.0,4.0,32,0.00,,,0.00,Wunderground v.1.15,2013-07-31 18:32:00,
2013-07-31 11:37:00,97.1,62.3,29.90,WNW,283,6.0,6.0,32,0.00,,,0.00,Wunderground v.1.15,2013-07-31 18:37:00,
2013-07-31 11:42:00,97.8,58.2,29.90,WNW,284,2.0,5.0,27,0.00,,,0.00,Wunderground v.1.15,2013-07-31 18:42:00,
2013-07-31 11:47:00,98.4,64.3,29.89,WNW,285,2.0,7.0,33,0.00,,,0.00,Wunderground v.1.15,2013-07-31 18:47:00,
2013-07-31 11:52:00,98.7,65.5,29.89,West,266,4.0,4.0,34,0.00,,,0.00,Wunderground v.1.15,2013-07-31 18:52:00,
2013-07-31 11:57:00,98.8,62.9,29.89,WNW,285,5.0,7.0,31,0.00,,,0.00,Wunderground v.1.15,2013-07-31 18:57:00,
2013-07-31 12:02:00,98.7,65.5,29.89,WNW,284,4.0,6.0,34,0.00,,,0.00,Wunderground v.1.15,2013-07-31 19:02:00,
2013-07-31 12:07:00,98.9,66.5,29.89,West,276,3.0,7.0,35,0.00,,,0.00,Wunderground v.1.15,2013-07-31 19:07:00,
2013-07-31 12:12:00,98.8,63.8,29.88,WSW,253,3.0,8.0,32,0.00,,,0.00,Wunderground v.1.15,2013-07-31 19:12:00,
2013-07-31 12:17:00,99.3,59.4,29.88,WSW,255,6.0,8.0,27,0.00,,,0.00,Wunderground v.1.15,2013-07-31 19:17:00,
2013-07-31 12:22:00,100.1,60.1,29.88,West,262,5.0,6.0,27,0.00,,,0.00,Wunderground v.1.15,2013-07-31 19:22:00,
2013-07-31 12:27:00,101.6,56.9,29.88,West,270,2.0,7.0,23,0.00,,,0.00,Wunderground v.1.15,2013-07-31 19:27:00,
2013-07-31 12:32:00,101.4,64.2,29.88,WNW,283,3.0,7.0,30,0.00,,,0.00,Wunderground v.1.15,2013-07-31 19:32:00,
2013-07-31 12:37:00,100.9,61.8,29.88,West,260,3.0,8.0,28,0.00,,,0.00,Wunderground v.1.15,2013-07-31 19:37:00,
2013-07-31 12:42:00,100.7,60.6,29.87,West,277,5.0,5.0,27,0.00,,,0.00,Wunderground v.1.15,2013-07-31 19:42:00,
2013-07-31 12:47:00,100.4,64.3,29.87,West,277,3.0,7.0,31,0.00,,,0.00,Wunderground v.1.15,2013-07-31 19:47:00,
2013-07-31 12:53:00,100.8,64.6,29.87,West,281,2.0,5.0,31,0.00,,,0.00,Wunderground v.1.15,2013-07-31 19:53:00,
2013-07-31 12:58:00,101.9,55.9,29.86,WSW,239,3.0,10.0,22,0.00,,,0.00,Wunderground v.1.15,2013-07-31 19:58:00,
2013-07-31 13:03:00,102.6,57.7,29.86,West,261,3.0,8.0,23,0.00,,,0.00,Wunderground v.1.15,2013-07-31 20:03:00,
2013-07-31 13:08:00,103.6,57.3,29.86,WSW,250,3.0,9.0,22,0.00,,,0.00,Wunderground v.1.15,2013-07-31 20:08:00,
2013-07-31 13:13:00,103.8,56.2,29.86,West,271,1.0,6.0,21,0.00,,,0.00,Wunderground v.1.15,2013-07-31 20:13:00,
2013-07-31 13:18:00,103.9,66.4,29.85,West,278,2.0,6.0,30,0.00,,,0.00,Wunderground v.1.15,2013-07-31 20:18:00,
2013-07-31 13:23:00,103.2,63.8,29.85,WNW,288,4.0,7.0,28,0.00,,,0.00,Wunderground v.1.15,2013-07-31 20:23:00,
2013-07-31 13:28:00,101.4,67.8,29.84,WNW,284,4.0,8.0,34,0.00,,,0.00,Wunderground v.1.15,2013-07-31 20:28:00,
2013-07-31 13:33:00,101.0,67.5,29.84,WNW,301,5.0,7.0,34,0.00,,,0.00,Wunderground v.1.15,2013-07-31 20:33:00,
2013-07-31 13:38:00,101.1,62.0,29.84,West,267,4.0,9.0,28,0.00,,,0.00,Wunderground v.1.15,2013-07-31 20:38:00,
2013-07-31 13:43:00,101.7,64.5,29.84,WNW,284,5.0,7.0,30,0.00,,,0.00,Wunderground v.1.15,2013-07-31 20:43:00,
2013-07-31 13:48:00,102.5,67.0,29.84,WNW,285,5.0,7.0,32,0.00,,,0.00,Wunderground v.1.15,2013-07-31 20:48:00,
2013-07-31 13:53:00,103.3,59.5,29.83,West,277,3.0,6.0,24,0.00,,,0.00,Wunderground v.1.15,2013-07-31 20:53:00,
2013-07-31 13:59:00,104.2,62.5,29.83,West,274,3.0,7.0,26,0.00,,,0.00,Wunderground v.1.15,2013-07-31 20:59:00,
2013-07-31 14:04:00,103.8,59.9,29.83,WNW,298,5.0,6.0,24,0.00,,,0.00,Wunderground v.1.15,2013-07-31 21:04:00,
2013-07-31 14:09:00,102.9,59.2,29.83,WNW,284,4.0,7.0,24,0.00,,,0.00,Wunderground v.1.15,2013-07-31 21:09:00,
2013-07-31 14:14:00,102.2,60.8,29.83,West,271,6.0,6.0,26,0.00,,,0.00,Wunderground v.1.15,2013-07-31 21:14:00,
2013-07-31 14:19:00,101.7,62.5,29.83,WNW,295,3.0,6.0,28,0.00,,,0.00,Wunderground v.1.15,2013-07-31 21:19:00,
2013-07-31 14:24:00,102.3,59.8,29.83,West,259,4.0,7.0,25,0.00,,,0.00,Wunderground v.1.15,2013-07-31 21:24:00,
2013-07-31 14:29:00,103.6,64.1,29.82,WSW,257,1.0,7.0,28,0.00,,,0.00,Wunderground v.1.15,2013-07-31 21:29:00,
2013-07-31 14:34:00,104.0,64.5,29.82,West,281,4.0,6.0,28,0.00,,,0.00,Wunderground v.1.15,2013-07-31 21:34:00,
2013-07-31 14:39:00,104.5,63.8,29.82,West,274,2.0,6.0,27,0.00,,,0.00,Wunderground v.1.15,2013-07-31 21:39:00,
2013-07-31 14:44:00,105.5,56.2,29.81,WNW,301,4.0,5.0,20,0.00,,,0.00,Wunderground v.1.15,2013-07-31 21:44:00,
2013-07-31 14:49:00,105.8,66.0,29.81,WNW,288,5.0,7.0,28,0.00,,,0.00,Wunderground v.1.15,2013-07-31 21:49:00,
2013-07-31 14:54:00,105.4,60.0,29.81,WNW,287,5.0,9.0,23,0.00,,,0.00,Wunderground v.1.15,2013-07-31 21:54:00,
2013-07-31 14:59:00,105.8,64.9,29.81,West,266,3.0,10.0,27,0.00,,,0.00,Wunderground v.1.15,2013-07-31 21:59:00,
2013-07-31 15:04:00,105.6,59.0,29.80,WSW,255,6.0,9.0,22,0.00,,,0.00,Wunderground v.1.15,2013-07-31 22:04:00,
2013-07-31 15:09:00,105.6,62.6,29.80,West,273,6.0,9.0,25,0.00,,,0.00,Wunderground v.1.15,2013-07-31 22:09:00,
2013-07-31 15:14:00,106.2,58.2,29.80,West,275,9.0,10.0,21,0.00,,,0.00,Wunderground v.1.15,2013-07-31 22:14:00,
2013-07-31 15:19:00,106.8,55.9,29.79,West,274,7.0,11.0,19,0.00,,,0.00,Wunderground v.1.15,2013-07-31 22:19:00,
2013-07-31 15:24:00,106.2,58.2,29.79,West,273,6.0,9.0,21,0.00,,,0.00,Wunderground v.1.15,2013-07-31 22:24:00,
2013-07-31 15:29:00,106.1,60.6,29.79,West,274,4.0,9.0,23,0.00,,,0.00,Wunderground v.1.15,2013-07-31 22:29:00,
2013-07-31 15:34:00,105.5,65.7,29.79,West,278,4.0,7.0,28,0.00,,,0.00,Wunderground v.1.15,2013-07-31 22:34:00,
2013-07-31 15:39:00,104.7,65.0,29.79,West,273,6.0,9.0,28,0.00,,,0.00,Wunderground v.1.15,2013-07-31 22:39:00,
2013-07-31 15:44:00,105.0,59.7,29.78,WNW,287,5.0,11.0,23,0.00,,,0.00,Wunderground v.1.15,2013-07-31 22:44:00,
2013-07-31 15:49:00,105.8,57.8,29.78,WSW,238,5.0,12.0,21,0.00,,,0.00,Wunderground v.1.15,2013-07-31 22:49:00,
2013-07-31 15:54:00,106.5,62.2,29.78,West,262,3.0,7.0,24,0.00,,,0.00,Wunderground v.1.15,2013-07-31 22:54:00,
2013-07-31 15:59:00,105.9,56.6,29.78,West,271,5.0,7.0,20,0.00,,,0.00,Wunderground v.1.15,2013-07-31 22:59:00,
2013-07-31 16:04:00,105.5,62.5,29.78,WNW,284,4.0,8.0,25,0.00,,,0.00,Wunderground v.1.15,2013-07-31 23:04:00,
2013-07-31 16:09:00,105.8,55.1,29.78,WSW,250,4.0,8.0,19,0.00,,,0.00,Wunderground v.1.15,2013-07-31 23:09:00,
2013-07-31 16:14:00,107.1,56.1,29.78,WSW,249,1.0,7.0,19,0.00,,,0.00,Wunderground v.1.15,2013-07-31 23:14:00,
2013-07-31 16:19:00,109.1,56.2,29.77,ESE,121,3.0,7.0,18,0.00,,,0.00,Wunderground v.1.15,2013-07-31 23:19:00,
2013-07-31 16:24:00,110.1,55.5,29.77,East,98,1.0,6.0,17,0.00,,,0.00,Wunderground v.1.15,2013-07-31 23:24:00,
2013-07-31 16:29:00,110.6,57.4,29.77,ESE,111,1.0,7.0,18,0.00,,,0.00,Wunderground v.1.15,2013-07-31 23:29:00,
2013-07-31 16:34:00,111.6,55.0,29.76,ESE,105,2.0,5.0,16,0.00,,,0.00,Wunderground v.1.15,2013-07-31 23:34:00,
2013-07-31 16:39:00,111.2,54.7,29.76,ESE,111,3.0,10.0,16,0.00,,,0.00,Wunderground v.1.15,2013-07-31 23:39:00,
2013-07-31 16:44:00,111.2,54.7,29.76,NNE,24,1.0,11.0,16,0.00,,,0.00,Wunderground v.1.15,2013-07-31 23:44:00,
2013-07-31 16:49:00,110.9,56.1,29.76,ESE,121,1.0,11.0,17,0.00,,,0.00,Wunderground v.1.15,2013-07-31 23:49:00,
2013-07-31 16:54:00,110.5,55.8,29.75,ESE,105,4.0,5.0,17,0.00,,,0.00,Wunderground v.1.15,2013-07-31 23:54:00,
2013-07-31 16:59:00,110.1,55.5,29.75,ESE,113,1.0,6.0,17,0.00,,,0.00,Wunderground v.1.15,2013-07-31 23:59:00,
2013-07-31 17:04:00,109.7,55.1,29.75,ESE,107,1.0,5.0,17,0.00,,,0.00,Wunderground v.1.15,2013-08-01 00:04:00,
2013-07-31 17:09:00,109.6,56.6,29.75,East,86,1.0,5.0,18,0.00,,,0.00,Wunderground v.1.15,2013-08-01 00:09:00,
2013-07-31 17:14:00,109.5,56.6,29.75,NW,304,1.0,4.0,18,0.00,,,0.00,Wunderground v.1.15,2013-08-01 00:14:00,
2013-07-31 17:19:00,109.8,55.2,29.75,East,101,0.0,4.0,17,0.00,,,0.00,Wunderground v.1.15,2013-08-01 00:19:00,
2013-07-31 17:24:00,110.4,57.3,29.75,NE,49,1.0,4.0,18,0.00,,,0.00,Wunderground v.1.15,2013-08-01 00:24:00,
2013-07-31 17:29:00,110.9,57.7,29.75,East,101,3.0,4.0,18,0.00,,,0.00,Wunderground v.1.15,2013-08-01 00:29:00,
2013-07-31 17:34:00,110.7,55.9,29.74,ESE,103,1.0,6.0,17,0.00,,,0.00,Wunderground v.1.15,2013-08-01 00:34:00,
2013-07-31 17:35:00,110.7,55.9,29.74,ESE,103,1.0,6.0,17,0.00,,,0.00,Wunderground v.1.15,2013-08-01 00:35:00,
2013-07-31 17:40:00,110.5,57.4,29.74,West,259,5.0,6.0,18,0.00,,,0.00,Wunderground v.1.15,2013-08-01 00:40:00,
2013-07-31 17:45:00,109.2,57.8,29.74,SW,231,4.0,12.0,19,0.00,,,0.00,Wunderground v.1.15,2013-08-01 00:45:00,
2013-07-31 17:50:00,108.8,56.0,29.74,SE,140,2.0,4.0,18,0.00,,,0.00,Wunderground v.1.15,2013-08-01 00:50:00,
2013-07-31 17:55:00,108.8,57.5,29.74,WNW,292,0.0,4.0,19,0.00,,,0.00,Wunderground v.1.15,2013-08-01 00:55:00,
2013-07-31 18:00:00,108.0,56.8,29.74,SW,233,5.0,6.0,19,0.00,,,0.00,Wunderground v.1.15,2013-08-01 01:00:00,
2013-07-31 18:05:00,107.3,57.7,29.74,WSW,252,3.0,9.0,20,0.00,,,0.00,Wunderground v.1.15,2013-08-01 01:05:00,
2013-07-31 18:10:00,107.3,57.7,29.74,West,269,1.0,3.0,20,0.00,,,0.00,Wunderground v.1.15,2013-08-01 01:10:00,
2013-07-31 18:15:00,107.3,57.7,29.74,SW,214,5.0,6.0,20,0.00,,,0.00,Wunderground v.1.15,2013-08-01 01:15:00,
2013-07-31 18:20:00,106.8,57.3,29.74,SW,236,0.0,3.0,20,0.00,,,0.00,Wunderground v.1.15,2013-08-01 01:20:00,
2013-07-31 18:25:00,106.8,57.3,29.74,WSW,243,1.0,7.0,20,0.00,,,0.00,Wunderground v.1.15,2013-08-01 01:25:00,
2013-07-31 18:30:00,107.0,56.0,29.74,SE,136,0.0,1.0,19,0.00,,,0.00,Wunderground v.1.15,2013-08-01 01:30:00,
2013-07-31 18:35:00,107.2,59.0,29.74,WSW,242,0.0,2.0,21,0.00,,,0.00,Wunderground v.1.15,2013-08-01 01:35:00,
2013-07-31 18:40:00,107.6,57.9,29.74,WSW,252,2.0,2.0,20,0.00,,,0.00,Wunderground v.1.15,2013-08-01 01:40:00,
2013-07-31 18:45:00,107.2,59.0,29.74,West,280,3.0,6.0,21,0.00,,,0.00,Wunderground v.1.15,2013-08-01 01:45:00,
2013-07-31 18:50:00,106.9,58.7,29.74,WSW,245,2.0,6.0,21,0.00,,,0.00,Wunderground v.1.15,2013-08-01 01:50:00,
2013-07-31 18:55:00,106.7,58.6,29.74,WSW,258,1.0,9.0,21,0.00,,,0.00,Wunderground v.1.15,2013-08-01 01:55:00,
2013-07-31 19:00:00,106.3,58.2,29.74,SW,232,2.0,3.0,21,0.00,,,0.00,Wunderground v.1.15,2013-08-01 02:00:00,
2013-07-31 19:05:00,105.6,59.0,29.74,WSW,243,2.0,4.0,22,0.00,,,0.00,Wunderground v.1.15,2013-08-01 02:05:00,
2013-07-31 19:10:00,104.9,58.4,29.74,SSE,160,3.0,6.0,22,0.00,,,0.00,Wunderground v.1.15,2013-08-01 02:10:00,
2013-07-31 19:15:00,104.6,58.1,29.75,SE,144,1.0,6.0,22,0.00,,,0.00,Wunderground v.1.15,2013-08-01 02:15:00,
2013-07-31 19:20:00,104.6,59.4,29.75,WSW,243,0.0,2.0,23,0.00,,,0.00,Wunderground v.1.15,2013-08-01 02:20:00,
2013-07-31 19:25:00,104.5,58.1,29.75,SSW,197,0.0,2.0,22,0.00,,,0.00,Wunderground v.1.15,2013-08-01 02:25:00,
2013-07-31 19:30:00,104.0,58.9,29.75,SSE,155,0.0,0.0,23,0.00,,,0.00,Wunderground v.1.15,2013-08-01 02:30:00,
2013-07-31 19:35:00,103.4,59.6,29.75,East,84,0.0,0.0,24,0.00,,,0.00,Wunderground v.1.15,2013-08-01 02:35:00,
2013-07-31 19:40:00,102.9,56.7,29.75,South,188,0.0,0.0,22,0.00,,,0.00,Wunderground v.1.15,2013-08-01 02:40:00,
2013-07-31 19:45:00,102.6,57.7,29.75,SSE,167,0.0,0.0,23,0.00,,,0.00,Wunderground v.1.15,2013-08-01 02:45:00,
2013-07-31 19:50:00,102.1,57.3,29.75,WNW,284,0.0,0.0,23,0.00,,,0.00,Wunderground v.1.15,2013-08-01 02:50:00,
2013-07-31 19:55:00,101.9,55.9,29.75,ESE,120,0.0,2.0,22,0.00,,,0.00,Wunderground v.1.15,2013-08-01 02:55:00,
2013-07-31 20:00:00,101.7,57.0,29.75,SSE,159,0.0,1.0,23,0.00,,,0.00,Wunderground v.1.15,2013-08-01 03:00:00,
2013-07-31 20:05:00,101.4,56.7,29.75,SSE,149,0.0,1.0,23,0.00,,,0.00,Wunderground v.1.15,2013-08-01 03:05:00,
2013-07-31 20:10:00,100.9,56.3,29.75,SW,225,0.0,0.0,23,0.00,,,0.00,Wunderground v.1.15,2013-08-01 03:10:00,
2013-07-31 20:15:00,100.6,56.1,29.75,SW,236,0.0,1.0,23,0.00,,,0.00,Wunderground v.1.15,2013-08-01 03:15:00,
2013-07-31 20:20:00,100.5,56.0,29.75,WSW,248,0.0,0.0,23,0.00,,,0.00,Wunderground v.1.15,2013-08-01 03:20:00,
2013-07-31 20:25:00,100.3,55.8,29.75,WSW,248,0.0,0.0,23,0.00,,,0.00,Wunderground v.1.15,2013-08-01 03:25:00,
2013-07-31 20:30:00,100.1,55.6,29.75,West,276,0.0,1.0,23,0.00,,,0.00,Wunderground v.1.15,2013-08-01 03:30:00,
2013-07-31 20:35:00,99.9,55.5,29.75,NNW,335,0.0,1.0,23,0.00,,,0.00,Wunderground v.1.15,2013-08-01 03:35:00,
2013-07-31 20:40:00,99.8,55.4,29.75,NNE,12,0.0,0.0,23,0.00,,,0.00,Wunderground v.1.15,2013-08-01 03:40:00,
2013-07-31 20:45:00,99.8,54.2,29.76,East,86,0.0,1.0,22,0.00,,,0.00,Wunderground v.1.15,2013-08-01 03:45:00,
2013-07-31 20:50:00,99.8,54.2,29.76,NNE,18,0.0,0.0,22,0.00,,,0.00,Wunderground v.1.15,2013-08-01 03:50:00,
2013-07-31 20:56:00,99.7,58.7,29.76,West,267,2.0,2.0,26,0.00,,,0.00,Wunderground v.1.15,2013-08-01 03:56:00,
2013-07-31 21:01:00,97.7,59.1,29.76,WSW,245,2.0,2.0,28,0.00,,,0.00,Wunderground v.1.15,2013-08-01 04:01:00,
2013-07-31 21:02:00,97.5,58.9,29.76,WSW,256,0.0,2.0,28,0.00,,,0.00,Wunderground v.1.15,2013-08-01 04:02:00,
2013-07-31 21:07:00,96.9,58.4,29.76,WSW,240,0.0,2.0,28,0.00,,,0.00,Wunderground v.1.15,2013-08-01 04:07:00,
2013-07-31 21:12:00,96.6,59.1,29.76,SSW,198,0.0,1.0,29,0.00,,,0.00,Wunderground v.1.15,2013-08-01 04:12:00,
2013-07-31 21:17:00,96.2,57.8,29.76,SSW,198,0.0,1.0,28,0.00,,,0.00,Wunderground v.1.15,2013-08-01 04:17:00,
2013-07-31 21:22:00,96.1,57.7,29.76,SSW,208,0.0,0.0,28,0.00,,,0.00,Wunderground v.1.15,2013-08-01 04:22:00,
2013-07-31 21:27:00,96.1,58.7,29.77,WSW,238,2.0,3.0,29,0.00,,,0.00,Wunderground v.1.15,2013-08-01 04:27:00,
2013-07-31 21:32:00,95.7,59.3,29.77,SW,224,0.0,4.0,30,0.00,,,0.00,Wunderground v.1.15,2013-08-01 04:32:00,
2013-07-31 21:37:00,95.4,59.1,29.77,SW,236,2.0,5.0,30,0.00,,,0.00,Wunderground v.1.15,2013-08-01 04:37:00,
2013-07-31 21:42:00,95.2,59.8,29.77,WSW,250,2.0,4.0,31,0.00,,,0.00,Wunderground v.1.15,2013-08-01 04:42:00,
2013-07-31 21:47:00,94.8,59.5,29.77,SSW,210,0.0,4.0,31,0.00,,,0.00,Wunderground v.1.15,2013-08-01 04:47:00,
2013-07-31 21:52:00,94.6,59.3,29.77,SE,134,0.0,2.0,31,0.00,,,0.00,Wunderground v.1.15,2013-08-01 04:52:00,
2013-07-31 21:57:00,94.5,59.2,29.77,SE,134,0.0,2.0,31,0.00,,,0.00,Wunderground v.1.15,2013-08-01 04:57:00,
2013-07-31 22:02:00,94.3,59.9,29.77,SE,136,0.0,0.0,32,0.00,,,0.00,Wunderground v.1.15,2013-08-01 05:02:00,
2013-07-31 22:07:00,94.1,59.7,29.77,SE,136,0.0,0.0,32,0.00,,,0.00,Wunderground v.1.15,2013-08-01 05:07:00,
2013-07-31 22:12:00,93.9,58.7,29.77,SE,135,0.0,0.0,31,0.00,,,0.00,Wunderground v.1.15,2013-08-01 05:12:00,
2013-07-31 22:17:00,93.8,58.6,29.77,SE,134,0.0,0.0,31,0.00,,,0.00,Wunderground v.1.15,2013-08-01 05:17:00,
2013-07-31 22:22:00,93.7,58.5,29.77,SE,132,0.0,0.0,31,0.00,,,0.00,Wunderground v.1.15,2013-08-01 05:22:00,
2013-07-31 22:27:00,93.5,58.3,29.77,SE,132,0.0,0.0,31,0.00,,,0.00,Wunderground v.1.15,2013-08-01 05:27:00,
2013-07-31 22:32:00,93.6,58.4,29.78,SE,132,0.0,0.0,31,0.00,,,0.00,Wunderground v.1.15,2013-08-01 05:32:00,
2013-07-31 22:37:00,93.8,56.7,29.77,ESE,121,0.0,1.0,29,0.00,,,0.00,Wunderground v.1.15,2013-08-01 05:37:00,
2013-07-31 22:42:00,94.2,56.1,29.77,ENE,72,0.0,0.0,28,0.00,,,0.00,Wunderground v.1.15,2013-08-01 05:42:00,
2013-07-31 22:48:00,94.4,60.9,29.77,WNW,291,0.0,1.0,33,0.00,,,0.00,Wunderground v.1.15,2013-08-01 05:48:00,
2013-07-31 22:52:00,94.0,56.9,29.77,West,281,0.0,1.0,29,0.00,,,0.00,Wunderground v.1.15,2013-08-01 05:52:00,
2013-07-31 22:58:00,93.7,56.6,29.77,WNW,288,0.0,1.0,29,0.00,,,0.00,Wunderground v.1.15,2013-08-01 05:58:00,
2013-07-31 23:03:00,93.8,53.7,29.77,SE,141,0.0,1.0,26,0.00,,,0.00,Wunderground v.1.15,2013-08-01 06:03:00,
2013-07-31 23:08:00,94.6,53.3,29.77,West,271,1.0,1.0,25,0.00,,,0.00,Wunderground v.1.15,2013-08-01 06:08:00,
2013-07-31 23:13:00,95.5,53.0,29.77,SE,135,1.0,2.0,24,0.00,,,0.00,Wunderground v.1.15,2013-08-01 06:13:00,
2013-07-31 23:18:00,96.3,52.5,29.77,West,270,0.0,5.0,23,0.00,,,0.00,Wunderground v.1.15,2013-08-01 06:18:00,
2013-07-31 23:23:00,96.6,51.5,29.78,East,94,0.0,4.0,22,0.00,,,0.00,Wunderground v.1.15,2013-08-01 06:23:00,
2013-07-31 23:28:00,96.6,51.5,29.78,WNW,292,0.0,4.0,22,0.00,,,0.00,Wunderground v.1.15,2013-08-01 06:28:00,
2013-07-31 23:33:00,96.5,50.2,29.78,NNW,339,0.0,2.0,21,0.00,,,0.00,Wunderground v.1.15,2013-08-01 06:33:00,
2013-07-31 23:38:00,96.3,48.7,29.78,West,281,1.0,3.0,20,0.00,,,0.00,Wunderground v.1.15,2013-08-01 06:38:00,
2013-07-31 23:43:00,96.2,48.6,29.78,NW,311,1.0,2.0,20,0.00,,,0.00,Wunderground v.1.15,2013-08-01 06:43:00,
2013-07-31 23:48:00,95.9,48.4,29.78,ESE,119,0.0,3.0,20,0.00,,,0.00,Wunderground v.1.15,2013-08-01 06:48:00,
2013-07-31 23:53:00,95.7,49.5,29.78,WSW,252,1.0,1.0,21,0.00,,,0.00,Wunderground v.1.15,2013-08-01 06:53:00,
2013-07-31 23:58:00,95.4,48.0,29.78,West,260,2.0,4.0,20,0.00,,,0.00,Wunderground v.1.15,2013-08-01 06:58:00,